Time;durP1;ratioP1;P1;durP2;ratioP2;P2;SDS_P1;SDS_P2;PMS_P1;PMS_P2;Temp;Humidity;BMP_temperature;BMP_pressure;BME280_temperature;BME280_humidity;BME280_pressure;Samples;Min_cycle;Max_cycle;Signal;HPM_P1;HPM_P2
2022/08/01 00:01:07;;;;;;;;;;;;;;;17.68;57.12;96441.81;6223042;28;19930;-65
2022/08/01 00:04:08;;;;;;;;;;;;;;;17.68;57.73;96439.16;6222916;28;19925;-65
2022/08/01 00:07:12;;;;;;;;;;;;;;;17.56;58.04;96435.06;6222783;28;19931;-65
2022/08/01 00:10:14;;;;;;;;;;;;;;;17.47;58.74;96437.66;6222275;28;19933;-65
2022/08/01 00:13:21;;;;;;;;;;;;;;;17.38;59.14;96443.91;6222060;28;20344;-65
2022/08/01 00:16:25;;;;;;;;;;;;;;;17.26;59.17;96429.13;6222755;28;19926;-65
2022/08/01 00:19:28;;;;;;;;;;;;;;;17.18;59.37;96431.72;6222447;28;19932;-65
2022/08/01 00:22:32;;;;;;;;;;;;;;;17.10;59.94;96423.66;6222477;28;19925;-66
2022/08/01 00:25:33;;;;;;;;;;;;;;;17.13;59.73;96428.69;6222565;28;19933;-65
2022/08/01 00:28:39;;;;;;;;;;;;;;;17.17;59.63;96430.06;6222476;28;20400;-66
2022/08/01 00:31:43;;;;;;;;;;;;;;;17.27;59.83;96426.34;6222359;28;19926;-66
2022/08/01 00:34:49;;;;;;;;;;;;;;;17.41;59.28;96432.94;6222403;28;19926;-66
2022/08/01 00:37:54;;;;;;;;;;;;;;;17.57;59.24;96431.41;6222119;28;19926;-64
2022/08/01 00:40:56;;;;;;;;;;;;;;;17.72;58.55;96435.19;6221807;28;19925;-66
2022/08/01 00:44:02;;;;;;;;;;;;;;;17.90;58.22;96438.69;6222049;28;19930;-66
2022/08/01 00:47:03;;;;;;;;;;;;;;;17.99;58.15;96444.06;6221910;28;19947;-66
2022/08/01 00:50:05;;;;;;;;;;;;;;;18.11;58.04;96450.78;6221947;28;20019;-66
2022/08/01 00:53:08;;;;;;;;;;;;;;;18.22;57.71;96453.19;6221758;28;19933;-65
2022/08/01 00:56:09;;;;;;;;;;;;;;;18.30;56.98;96444.41;6221765;28;19926;-66
2022/08/01 00:59:14;;;;;;;;;;;;;;;18.31;57.18;96446.91;6221895;28;20418;-65
2022/08/01 01:02:15;;;;;;;;;;;;;;;18.29;57.30;96451.59;6221576;28;19971;-65
2022/08/01 01:05:17;;;;;;;;;;;;;;;18.26;57.76;96449.25;6220893;28;19932;-65
2022/08/01 01:08:26;;;;;;;;;;;;;;;18.16;57.99;96443.16;6221303;28;19932;-65
2022/08/01 01:11:34;;;;;;;;;;;;;;;18.06;58.12;96443.28;6221498;28;19926;-65
2022/08/01 01:14:45;;;;;;;;;;;;;;;18.03;58.68;96442.75;6221114;28;19999;-66
2022/08/01 01:17:52;;;;;;;;;;;;;;;18.04;58.37;96441.78;6221415;28;19925;-66
2022/08/01 01:21:02;;;;;;;;;;;;;;;18.05;58.18;96444.25;6221689;28;20311;-66
2022/08/01 01:24:22;;;;;;;;;;;;;;;17.98;58.48;96445.06;6221600;28;19925;-66
2022/08/01 01:27:23;;;;;;;;;;;;;;;17.94;58.67;96445.34;6221300;28;20019;-64
2022/08/01 01:30:26;;;;;;;;;;;;;;;17.95;58.84;96456.84;6221802;28;20522;-65
2022/08/01 01:33:31;;;;;;;;;;;;;;;17.97;58.49;96449.53;6221312;28;19925;-65
2022/08/01 01:36:35;;;;;;;;;;;;;;;17.92;58.68;96447.34;6221344;28;20374;-65
2022/08/01 01:39:38;;;;;;;;;;;;;;;17.87;58.68;96439.00;6221202;28;19921;-64
2022/08/01 01:42:42;;;;;;;;;;;;;;;17.88;58.53;96447.81;6221322;28;20020;-65
2022/08/01 01:45:44;;;;;;;;;;;;;;;17.95;58.85;96446.22;6221151;28;19921;-66
2022/08/01 01:48:46;;;;;;;;;;;;;;;18.05;59.39;96451.41;6221186;28;20356;-66
2022/08/01 01:51:47;;;;;;;;;;;;;;;18.21;58.39;96446.22;6220942;28;20284;-66
2022/08/01 01:54:51;;;;;;;;;;;;;;;18.42;59.01;96444.97;6220994;28;19991;-66
2022/08/01 01:57:53;;;;;;;;;;;;;;;18.66;58.48;96439.78;6220965;28;19929;-66
2022/08/01 02:00:59;;;;;;;;;;;;;;;18.90;57.08;96446.22;6220916;28;19921;-66
2022/08/01 02:04:02;;;;;;;;;;;;;;;19.16;56.58;96451.44;6221402;28;19941;-66
2022/08/01 02:07:08;;;;;;;;;;;;;;;19.44;55.20;96444.81;6221229;28;19926;-65
2022/08/01 02:10:12;;;;;;;;;;;;;;;19.67;54.96;96445.06;6220797;28;19929;-65
2022/08/01 02:13:14;;;;;;;;;;;;;;;19.83;54.74;96440.72;6220872;28;19926;-65
2022/08/01 02:16:20;;;;;;;;;;;;;;;19.95;55.22;96444.69;6220641;28;19925;-65
2022/08/01 02:19:26;;;;;;;;;;;;;;;20.05;54.80;96441.88;6220756;28;19925;-65
2022/08/01 02:22:37;;;;;;;;;;;;;;;20.21;54.07;96446.31;6222486;28;19932;-66
2022/08/01 02:25:49;;;;;;;;;;;;;;;20.25;54.26;96445.00;6224787;28;19929;-66
2022/08/01 02:28:55;;;;;;;;;;;;;;;20.37;54.38;96454.31;6224647;28;20391;-66
2022/08/01 02:31:57;;;;;;;;;;;;;;;20.62;53.93;96461.28;6224922;28;19925;-65
2022/08/01 02:35:00;;;;;;;;;;;;;;;20.88;53.30;96465.53;6222927;28;20430;-66
2022/08/01 02:38:03;;;;;;;;;;;;;;;21.11;52.94;96459.41;6224424;28;19925;-65
2022/08/01 02:41:08;;;;;;;;;;;;;;;21.24;52.54;96454.34;6224883;28;19925;-65
2022/08/01 02:44:16;;;;;;;;;;;;;;;21.26;52.30;96457.66;6224720;28;19926;-65
2022/08/01 02:47:23;;;;;;;;;;;;;;;21.21;52.55;96460.03;6224551;28;19926;-65
2022/08/01 02:50:28;;;;;;;;;;;;;;;21.17;52.69;96459.53;6224466;28;19932;-66
2022/08/01 02:53:31;;;;;;;;;;;;;;;21.12;52.93;96456.56;6224368;28;19925;-66
2022/08/01 02:56:36;;;;;;;;;;;;;;;21.08;52.97;96456.06;6224321;28;19925;-66
2022/08/01 02:59:38;;;;;;;;;;;;;;;21.10;52.85;96452.41;6224398;28;19921;-66
2022/08/01 03:02:41;;;;;;;;;;;;;;;21.13;52.89;96452.06;6222212;28;19971;-66
2022/08/01 03:05:45;;;;;;;;;;;;;;;21.14;52.62;96453.72;6224165;28;19922;-66
2022/08/01 03:08:48;;;;;;;;;;;;;;;21.17;52.48;96458.69;6224085;28;20394;-65
2022/08/01 03:11:49;;;;;;;;;;;;;;;21.22;52.40;96456.34;6223261;28;19925;-65
2022/08/01 03:14:54;;;;;;;;;;;;;;;21.33;52.07;96458.63;6224030;28;20340;-65
2022/08/01 03:17:59;;;;;;;;;;;;;;;21.44;52.06;96454.75;6223946;28;19933;-65
2022/08/01 03:21:03;;;;;;;;;;;;;;;21.66;51.66;96461.13;6223870;28;19926;-66
2022/08/01 03:24:09;;;;;;;;;;;;;;;21.90;51.23;96468.94;6223649;28;19979;-65
2022/08/01 03:27:14;;;;;;;;;;;;;;;22.18;51.05;96473.75;6223526;28;19925;-67
2022/08/01 03:30:17;;;;;;;;;;;;;;;22.50;50.02;96471.75;6223498;28;20460;-65
2022/08/01 03:33:18;;;;;;;;;;;;;;;22.78;49.64;96467.41;6223288;28;19931;-66
2022/08/01 03:36:25;;;;;;;;;;;;;;;23.18;48.75;96476.00;6223368;28;19925;-66
2022/08/01 03:39:30;;;;;;;;;;;;;;;23.56;48.52;96469.63;6223485;28;19925;-66
2022/08/01 03:42:37;;;;;;;;;;;;;;;23.96;47.51;96458.25;6223431;28;19925;-65
2022/08/01 03:45:45;;;;;;;;;;;;;;;24.32;47.19;96461.84;6223023;28;19929;-65
2022/08/01 03:48:52;;;;;;;;;;;;;;;24.62;46.58;96457.09;6222769;28;19926;-65
2022/08/01 03:51:54;;;;;;;;;;;;;;;25.04;45.63;96461.47;6222550;28;19932;-65
2022/08/01 03:54:56;;;;;;;;;;;;;;;25.58;45.04;96457.13;6222802;28;19956;-66
2022/08/01 03:58:00;;;;;;;;;;;;;;;26.13;43.97;96462.41;6223053;28;19926;-66
2022/08/01 04:01:03;;;;;;;;;;;;;;;26.53;43.28;96455.13;6222802;28;19925;-66
2022/08/01 04:04:07;;;;;;;;;;;;;;;26.92;42.62;96468.75;6222450;28;19925;-65
2022/08/01 04:07:24;;;;;;;;;;;;;;;27.23;42.40;96468.88;6222684;28;19933;-65
2022/08/01 04:10:29;;;;;;;;;;;;;;;27.57;41.47;96477.63;6222678;28;19925;-66
2022/08/01 04:13:33;;;;;;;;;;;;;;;27.93;41.10;96474.31;6222610;28;19926;-65
2022/08/01 04:16:36;;;;;;;;;;;;;;;28.29;40.41;96469.28;6222152;28;20426;-65
2022/08/01 04:19:40;;;;;;;;;;;;;;;28.46;39.98;96475.81;6222514;28;19929;-66
2022/08/01 04:22:46;;;;;;;;;;;;;;;28.70;39.65;96481.41;6222538;28;19925;-66
2022/08/01 04:25:50;;;;;;;;;;;;;;;29.11;39.07;96483.50;6222169;28;19929;-65
2022/08/01 04:28:54;;;;;;;;;;;;;;;29.46;38.35;96480.16;6222290;28;19925;-68
2022/08/01 04:32:01;;;;;;;;;;;;;;;29.71;37.37;96488.19;6221965;28;19933;-66
2022/08/01 04:35:04;;;;;;;;;;;;;;;29.78;37.34;96483.53;6221788;28;20299;-65
2022/08/01 04:38:21;;;;;;;;;;;;;;;30.01;37.71;96481.91;6222255;28;19925;-65
2022/08/01 04:41:23;;;;;;;;;;;;;;;30.28;36.99;96488.63;6221737;28;19925;-66
2022/08/01 04:44:27;;;;;;;;;;;;;;;30.72;35.88;96491.03;6221475;28;19929;-65
2022/08/01 04:47:30;;;;;;;;;;;;;;;32.60;33.22;96493.13;6221538;28;19929;-66
2022/08/01 04:50:36;;;;;;;;;;;;;;;35.93;29.47;96489.66;6221606;28;20402;-66
2022/08/01 04:53:39;;;;;;;;;;;;;;;39.19;22.88;96496.91;6221741;28;19925;-65
2022/08/01 04:56:45;;;;;;;;;;;;;;;39.53;26.07;96490.47;6221649;28;20064;-66
2022/08/01 04:59:52;;;;;;;;;;;;;;;37.80;28.13;96490.84;6221291;28;19925;-66
2022/08/01 05:02:56;;;;;;;;;;;;;;;36.35;29.85;96490.56;6221773;28;19932;-66
2022/08/01 05:05:58;;;;;;;;;;;;;;;35.50;30.85;96483.50;6221047;28;19925;-66
2022/08/01 05:08:59;;;;;;;;;;;;;;;35.72;29.18;96480.56;6221286;28;20319;-66
2022/08/01 05:12:05;;;;;;;;;;;;;;;35.19;28.96;96471.63;6221245;28;19925;-66
2022/08/01 05:15:06;;;;;;;;;;;;;;;34.09;28.85;96476.78;6220911;28;20314;-66
2022/08/01 05:18:11;;;;;;;;;;;;;;;32.67;29.71;96476.59;6219597;28;19929;-66
2022/08/01 05:21:14;;;;;;;;;;;;;;;31.44;31.86;96469.78;6221400;28;19926;-66
2022/08/01 05:24:17;;;;;;;;;;;;;;;31.08;31.19;96470.91;6221259;28;19936;-66
2022/08/01 05:27:20;;;;;;;;;;;;;;;30.35;31.89;96477.66;6221117;28;19933;-66
2022/08/01 05:30:24;;;;;;;;;;;;;;;30.07;32.42;96476.41;6221374;28;19996;-66
2022/08/01 05:33:27;;;;;;;;;;;;;;;30.34;31.66;96476.81;6221204;28;19926;-66
2022/08/01 05:36:31;;;;;;;;;;;;;;;30.02;31.99;96483.59;6221093;28;20371;-66
2022/08/01 05:39:32;;;;;;;;;;;;;;;30.57;31.87;96480.63;6221074;28;20079;-66
2022/08/01 05:42:33;;;;;;;;;;;;;;;31.80;30.26;96478.66;6220975;28;19925;-65
2022/08/01 05:45:41;;;;;;;;;;;;;;;32.28;29.26;96488.22;6221168;28;19999;-66
2022/08/01 05:48:42;;;;;;;;;;;;;;;32.95;28.98;96487.38;6220531;28;20399;-66
2022/08/01 05:51:46;;;;;;;;;;;;;;;35.63;26.08;96490.41;6221178;28;19926;-65
2022/08/01 05:54:52;;;;;;;;;;;;;;;38.31;22.72;96497.94;6220992;28;19925;-65
2022/08/01 05:57:53;;;;;;;;;;;;;;;39.50;21.49;96504.84;6224873;28;20007;-65
2022/08/01 06:00:56;;;;;;;;;;;;;;;41.45;20.21;96506.19;6225573;28;20284;-65
2022/08/01 06:04:02;;;;;;;;;;;;;;;44.80;16.34;96504.25;6225301;28;19932;-65
2022/08/01 06:07:09;;;;;;;;;;;;;;;46.31;16.64;96508.47;6225360;28;19929;-65
2022/08/01 06:10:13;;;;;;;;;;;;;;;47.96;16.31;96499.44;6225282;28;20012;-66
2022/08/01 06:13:19;;;;;;;;;;;;;;;48.87;13.49;96510.13;6225272;28;19925;-66
2022/08/01 06:16:23;;;;;;;;;;;;;;;48.51;13.26;96498.75;6225168;28;20458;-65
2022/08/01 06:19:26;;;;;;;;;;;;;;;48.48;14.06;96499.44;6225182;28;20031;-66
2022/08/01 06:22:29;;;;;;;;;;;;;;;48.62;13.85;96501.84;6224834;28;19925;-66
2022/08/01 06:25:33;;;;;;;;;;;;;;;48.58;13.25;96497.31;6224796;28;19933;-67
2022/08/01 06:28:36;;;;;;;;;;;;;;;47.83;14.28;96493.88;6224572;28;19925;-64
2022/08/01 06:31:41;;;;;;;;;;;;;;;47.37;13.81;96487.59;6224919;28;20012;-66
2022/08/01 06:34:44;;;;;;;;;;;;;;;45.70;15.47;96480.25;6223422;28;19968;-65
2022/08/01 06:37:46;;;;;;;;;;;;;;;43.15;17.96;96465.19;6224469;28;19954;-65
2022/08/01 06:40:50;;;;;;;;;;;;;;;45.21;16.04;96471.47;6224696;28;20012;-66
2022/08/01 06:43:53;;;;;;;;;;;;;;;44.83;15.70;96463.13;6224634;28;19926;-66
2022/08/01 06:46:54;;;;;;;;;;;;;;;43.45;16.94;96454.38;6224559;28;19931;-65
2022/08/01 06:50:00;;;;;;;;;;;;;;;46.15;14.95;96462.94;6224511;28;19992;-65
2022/08/01 06:53:04;;;;;;;;;;;;;;;47.35;14.66;96452.88;6223331;28;19993;-64
2022/08/01 06:56:06;;;;;;;;;;;;;;;49.24;13.79;96463.22;6224372;28;20450;-65
2022/08/01 06:59:07;;;;;;;;;;;;;;;50.99;11.97;96466.28;6224152;28;19933;-64
2022/08/01 07:02:08;;;;;;;;;;;;;;;51.15;12.27;96457.72;6223684;28;19933;-65
2022/08/01 07:05:12;;;;;;;;;;;;;;;50.89;12.08;96461.25;6224301;28;19925;-65
2022/08/01 07:08:13;;;;;;;;;;;;;;;50.94;11.92;96463.75;6223526;28;20338;-65
2022/08/01 07:11:18;;;;;;;;;;;;;;;52.15;11.02;96452.88;6223746;28;19947;-65
2022/08/01 07:14:20;;;;;;;;;;;;;;;53.19;10.69;96460.47;6224079;28;19933;-66
2022/08/01 07:17:25;;;;;;;;;;;;;;;54.68;9.31;96459.00;6223922;28;19925;-65
2022/08/01 07:20:30;;;;;;;;;;;;;;;55.26;9.04;96465.53;6223748;28;19929;-66
2022/08/01 07:23:33;;;;;;;;;;;;;;;56.03;8.70;96461.06;6223513;28;19948;-66
2022/08/01 07:26:35;;;;;;;;;;;;;;;56.25;8.39;96458.16;6223793;28;19932;-64
2022/08/01 07:29:39;;;;;;;;;;;;;;;55.11;9.14;96454.25;6223575;28;20007;-65
2022/08/01 07:32:40;;;;;;;;;;;;;;;53.23;9.81;96444.47;6223346;28;20387;-65
2022/08/01 07:35:43;;;;;;;;;;;;;;;54.12;8.58;96449.09;6223377;28;19926;-65
2022/08/01 07:38:49;;;;;;;;;;;;;;;54.80;8.64;96438.88;6223380;28;19941;-65
2022/08/01 07:41:54;;;;;;;;;;;;;;;55.20;8.14;96434.09;6223210;28;19932;-65
2022/08/01 07:44:55;;;;;;;;;;;;;;;55.30;8.35;96424.06;6222727;28;19948;-66
2022/08/01 07:48:03;;;;;;;;;;;;;;;54.75;9.30;96427.22;6223027;28;19926;-65
2022/08/01 07:51:08;;;;;;;;;;;;;;;51.70;9.95;96409.75;6222805;28;20015;-65
2022/08/01 07:54:12;;;;;;;;;;;;;;;47.12;12.48;96389.25;6222884;28;20024;-67
2022/08/01 07:57:17;;;;;;;;;;;;;;;45.25;14.03;96375.25;6222617;28;20020;-66
2022/08/01 08:00:23;;;;;;;;;;;;;;;47.63;12.21;96363.81;6222592;28;20020;-66
2022/08/01 08:03:27;;;;;;;;;;;;;;;50.85;10.55;96371.56;6222607;28;19925;-65
2022/08/01 08:06:33;;;;;;;;;;;;;;;53.74;9.54;96383.78;6222846;28;19948;-64
2022/08/01 08:09:34;;;;;;;;;;;;;;;55.78;8.14;96382.06;6222018;28;20399;-65
2022/08/01 08:12:36;;;;;;;;;;;;;;;57.30;7.44;96386.44;6222425;28;20406;-65
2022/08/01 08:15:40;;;;;;;;;;;;;;;58.23;7.58;96393.91;6222575;28;20398;-65
2022/08/01 08:18:45;;;;;;;;;;;;;;;58.58;7.12;96389.00;6221938;28;20379;-65
2022/08/01 08:21:49;;;;;;;;;;;;;;;58.50;7.45;96381.84;6222615;28;19979;-65
2022/08/01 08:24:50;;;;;;;;;;;;;;;57.43;6.86;96377.44;6222162;28;19929;-65
2022/08/01 08:27:56;;;;;;;;;;;;;;;54.33;8.09;96366.72;6222048;28;19926;-64
2022/08/01 08:31:02;;;;;;;;;;;;;;;54.03;8.88;96356.59;6222185;28;19932;-65
2022/08/01 08:34:09;;;;;;;;;;;;;;;55.42;8.11;96355.94;6221970;28;19925;-65
2022/08/01 08:37:11;;;;;;;;;;;;;;;55.42;7.46;96347.50;6221930;28;20391;-65
2022/08/01 08:40:12;;;;;;;;;;;;;;;53.90;8.27;96346.84;6222245;28;20405;-66
2022/08/01 08:43:17;;;;;;;;;;;;;;;51.13;10.18;96332.00;6221644;28;19925;-66
2022/08/01 08:46:23;;;;;;;;;;;;;;;47.51;12.03;96317.25;6221771;28;19925;-65
2022/08/01 08:49:28;;;;;;;;;;;;;;;44.06;14.35;96313.94;6221842;28;19921;-65
2022/08/01 08:52:35;;;;;;;;;;;;;;;41.76;15.58;96301.16;6221711;28;19925;-66
2022/08/01 08:55:38;;;;;;;;;;;;;;;39.90;16.67;96301.59;6221553;28;19936;-65
2022/08/01 08:58:45;;;;;;;;;;;;;;;38.30;17.88;96293.75;6221289;28;19929;-66
2022/08/01 09:01:49;;;;;;;;;;;;;;;36.85;19.29;96297.00;6221426;28;19975;-66
2022/08/01 09:04:52;;;;;;;;;;;;;;;35.38;21.65;96301.53;6221388;28;19925;-65
2022/08/01 09:07:58;;;;;;;;;;;;;;;33.81;23.68;96309.47;6221450;28;19925;-65
2022/08/01 09:11:02;;;;;;;;;;;;;;;32.90;25.62;96306.66;6220844;28;20015;-66
2022/08/01 09:14:11;;;;;;;;;;;;;;;31.82;27.71;96315.16;6220095;28;20315;-65
2022/08/01 09:17:13;;;;;;;;;;;;;;;30.96;28.54;96320.69;6220632;28;19932;-65
2022/08/01 09:20:24;;;;;;;;;;;;;;;30.32;29.91;96326.97;6221294;28;19933;-65
2022/08/01 09:23:33;;;;;;;;;;;;;;;30.02;28.76;96337.09;6221348;28;19925;-65
2022/08/01 09:26:37;;;;;;;;;;;;;;;29.77;28.22;96343.56;6220619;28;19948;-66
2022/08/01 09:29:44;;;;;;;;;;;;;;;29.77;28.00;96351.69;6221916;28;19925;-65
2022/08/01 09:32:55;;;;;;;;;;;;;;;29.57;27.62;96356.56;6226443;28;20024;-66
2022/08/01 09:35:59;;;;;;;;;;;;;;;29.20;27.58;96351.28;6226621;28;20391;-66
2022/08/01 09:39:11;;;;;;;;;;;;;;;28.93;27.77;96350.75;6226206;28;19925;-65
2022/08/01 09:42:20;;;;;;;;;;;;;;;28.85;28.25;96360.03;6225891;28;20517;-66
2022/08/01 09:45:48;;;;;;;;;;;;;;;28.66;28.14;96351.09;6225722;28;19933;-65
2022/08/01 09:48:55;;;;;;;;;;;;;;;28.74;27.51;96339.16;6223246;28;20306;-66
2022/08/01 09:52:10;;;;;;;;;;;;;;;29.00;27.49;96349.63;6225918;28;19929;-66
2022/08/01 09:55:11;;;;;;;;;;;;;;;29.21;27.80;96344.78;6225769;28;19932;-66
2022/08/01 09:58:12;;;;;;;;;;;;;;;29.38;28.36;96347.69;6225394;28;19965;-65
2022/08/01 10:01:16;;;;;;;;;;;;;;;29.46;29.18;96356.28;6225711;28;20363;-66
2022/08/01 10:04:19;;;;;;;;;;;;;;;29.53;30.31;96357.03;6225356;28;19926;-66
2022/08/01 10:07:21;;;;;;;;;;;;;;;29.35;30.87;96338.13;6225376;28;20307;-66
2022/08/01 10:10:22;;;;;;;;;;;;;;;29.46;32.29;96329.19;6224586;28;19932;-66
2022/08/01 10:13:27;;;;;;;;;;;;;;;29.47;32.76;96328.16;6225191;28;19991;-66
2022/08/01 10:16:34;;;;;;;;;;;;;;;30.13;31.69;96328.13;6225049;28;19925;-65
2022/08/01 10:19:41;;;;;;;;;;;;;;;30.74;30.99;96340.31;6225234;28;19922;-66
2022/08/01 10:22:43;;;;;;;;;;;;;;;31.41;29.86;96347.94;6225241;28;20462;-66
2022/08/01 10:25:48;;;;;;;;;;;;;;;32.65;28.10;96352.38;6225074;28;19929;-65
2022/08/01 10:28:50;;;;;;;;;;;;;;;33.28;27.18;96352.06;6224898;28;20383;-66
2022/08/01 10:31:51;;;;;;;;;;;;;;;33.59;26.48;96355.94;6225115;28;19937;-65
2022/08/01 10:34:52;;;;;;;;;;;;;;;34.37;25.56;96356.31;6224575;28;20318;-65
2022/08/01 10:37:57;;;;;;;;;;;;;;;35.36;23.88;96358.41;6224140;28;19926;-65
2022/08/01 10:41:03;;;;;;;;;;;;;;;36.55;22.33;96359.06;6224369;28;19933;-65
2022/08/01 10:44:07;;;;;;;;;;;;;;;36.93;21.80;96362.22;6224665;28;19925;-66
2022/08/01 10:47:08;;;;;;;;;;;;;;;37.15;21.84;96377.53;6224270;28;20280;-67
2022/08/01 10:50:24;;;;;;;;;;;;;;;36.55;21.52;96378.25;6224656;28;19948;-66
2022/08/01 10:53:26;;;;;;;;;;;;;;;35.85;21.98;96374.41;6224448;28;19952;-65
2022/08/01 10:56:38;;;;;;;;;;;;;;;35.59;22.51;96373.56;6224158;28;19926;-65
2022/08/01 10:59:49;;;;;;;;;;;;;;;35.91;21.72;96370.56;6223958;28;19925;-65
2022/08/01 11:03:00;;;;;;;;;;;;;;;36.17;22.09;96364.00;6223699;28;19926;-66
2022/08/01 11:06:03;;;;;;;;;;;;;;;35.75;21.82;96367.00;6224409;28;19987;-65
2022/08/01 11:09:13;;;;;;;;;;;;;;;35.33;22.41;96369.91;6223832;28;19925;-66
2022/08/01 11:12:16;;;;;;;;;;;;;;;35.08;22.75;96372.31;6223248;28;19926;-66
2022/08/01 11:15:24;;;;;;;;;;;;;;;35.25;22.38;96374.00;6223168;28;20416;-65
2022/08/01 11:18:26;;;;;;;;;;;;;;;35.21;22.45;96384.63;6223604;28;19929;-65
2022/08/01 11:21:48;;;;;;;;;;;;;;;34.75;24.11;96380.88;6223644;28;19929;-65
2022/08/01 11:24:56;;;;;;;;;;;;;;;33.57;25.82;96374.47;6223550;28;19929;-66
2022/08/01 11:28:16;;;;;;;;;;;;;;;32.80;26.98;96375.44;6221854;28;20272;-65
2022/08/01 11:31:20;;;;;;;;;;;;;;;32.83;26.66;96364.03;6223334;28;19925;-67
2022/08/01 11:34:44;;;;;;;;;;;;;;;32.61;26.96;96367.59;6223343;28;19979;-65
2022/08/01 11:37:45;;;;;;;;;;;;;;;32.41;27.61;96364.53;6223520;28;19925;-65
2022/08/01 11:41:08;;;;;;;;;;;;;;;32.12;28.66;96367.38;6223342;28;19925;-65
2022/08/01 11:44:11;;;;;;;;;;;;;;;32.24;28.43;96375.44;6223445;28;19979;-66
2022/08/01 11:47:15;;;;;;;;;;;;;;;32.32;28.47;96387.81;6223219;28;20399;-66
2022/08/01 11:50:28;;;;;;;;;;;;;;;32.40;28.47;96390.13;6223047;28;20434;-66
2022/08/01 11:53:29;;;;;;;;;;;;;;;32.74;27.88;96390.06;6221640;28;19932;-66
2022/08/01 11:56:33;;;;;;;;;;;;;;;33.11;27.70;96384.03;6222834;28;19925;-66
2022/08/01 12:00:03;;;;;;;;;;;;;;;33.71;26.75;96385.78;6222567;28;19921;-66
2022/08/01 12:03:09;;;;;;;;;;;;;;;34.41;25.76;96373.81;6214819;28;20353;-66
2022/08/01 12:06:10;;;;;;;;;;;;;;;35.26;24.97;96376.44;6222652;28;19984;-66
2022/08/01 12:09:14;;;;;;;;;;;;;;;35.63;24.68;96369.19;6222514;28;19921;-65
2022/08/01 12:12:17;;;;;;;;;;;;;;;35.61;24.52;96372.16;6222321;28;20310;-66
2022/08/01 12:15:20;;;;;;;;;;;;;;;35.67;24.43;96376.59;6222168;28;19925;-65
2022/08/01 12:18:21;;;;;;;;;;;;;;;35.87;24.50;96380.41;6221898;28;20048;-66
2022/08/01 12:21:26;;;;;;;;;;;;;;;35.78;24.24;96377.38;6221255;28;19933;-66
2022/08/01 12:24:28;;;;;;;;;;;;;;;35.69;24.22;96370.81;6221642;28;20314;-66
2022/08/01 12:27:32;;;;;;;;;;;;;;;35.82;23.65;96373.03;6221865;28;19926;-67
2022/08/01 12:30:36;;;;;;;;;;;;;;;35.91;23.25;96370.56;6222134;28;19925;-67
2022/08/01 12:33:40;;;;;;;;;;;;;;;35.50;23.89;96381.41;6221787;28;20415;-67
2022/08/01 12:36:42;;;;;;;;;;;;;;;35.44;23.95;96372.41;6221411;28;20319;-67
2022/08/01 12:39:46;;;;;;;;;;;;;;;35.51;23.54;96378.44;6221052;28;19932;-68
2022/08/01 12:42:48;;;;;;;;;;;;;;;35.66;23.35;96372.19;6221574;28;19926;-67
2022/08/01 12:45:52;;;;;;;;;;;;;;;35.90;23.13;96368.94;6221852;28;19925;-66
2022/08/01 12:48:54;;;;;;;;;;;;;;;35.95;22.17;96366.19;6221541;28;19980;-68
2022/08/01 12:51:58;;;;;;;;;;;;;;;35.72;22.77;96373.81;6221406;28;19926;-66
2022/08/01 12:55:10;;;;;;;;;;;;;;;35.72;22.70;96376.56;6221423;28;19929;-66
2022/08/01 12:58:15;;;;;;;;;;;;;;;35.64;22.81;96385.34;6221422;28;19925;-66
2022/08/01 13:01:25;;;;;;;;;;;;;;;35.47;23.14;96373.75;6221210;28;20006;-66
2022/08/01 13:04:29;;;;;;;;;;;;;;;35.02;23.35;96376.06;6220493;28;19925;-66
2022/08/01 13:07:41;;;;;;;;;;;;;;;34.27;24.20;96358.97;6220934;28;19925;-65
2022/08/01 13:10:45;;;;;;;;;;;;;;;33.68;24.52;96361.75;6220302;28;20008;-66
2022/08/01 13:13:51;;;;;;;;;;;;;;;33.31;25.23;96357.00;6220255;28;20387;-66
2022/08/01 13:16:55;;;;;;;;;;;;;;;32.96;25.43;96360.94;6221212;28;19925;-67
2022/08/01 13:19:59;;;;;;;;;;;;;;;32.73;25.48;96361.19;6220966;28;20388;-66
2022/08/01 13:23:15;;;;;;;;;;;;;;;32.37;25.76;96360.66;6220793;28;19929;-66
2022/08/01 13:26:17;;;;;;;;;;;;;;;32.01;26.65;96357.41;6219093;28;19965;-68
2022/08/01 13:29:20;;;;;;;;;;;;;;;31.87;26.76;96365.03;6220625;28;20645;-66
2022/08/01 13:32:23;;;;;;;;;;;;;;;31.77;26.73;96360.25;6220419;28;19948;-65
2022/08/01 13:35:27;;;;;;;;;;;;;;;31.64;26.61;96359.75;6220643;28;19925;-66
2022/08/01 13:41:52;;;;;;;;;;;;;;;31.19;27.22;96358.63;6220621;28;19931;-65
2022/08/01 13:44:56;;;;;;;;;;;;;;;30.99;27.83;96363.69;6220346;28;19926;-66
2022/08/01 13:47:59;;;;;;;;;;;;;;;31.17;27.13;96366.22;6220844;28;20252;-66
2022/08/01 13:51:03;;;;;;;;;;;;;;;31.45;26.84;96368.16;6219691;28;19925;-65
2022/08/01 13:54:07;;;;;;;;;;;;;;;31.48;26.81;96366.81;6220670;28;20387;-66
2022/08/01 13:57:11;;;;;;;;;;;;;;;31.16;27.51;96372.72;6220367;28;20441;-65
2022/08/01 14:00:17;;;;;;;;;;;;;;;30.59;28.30;96369.88;6220778;28;19925;-65
2022/08/01 14:03:20;;;;;;;;;;;;;;;29.96;28.99;96372.22;6220691;28;19925;-66
2022/08/01 14:06:22;;;;;;;;;;;;;;;29.38;29.52;96372.88;6220797;28;20019;-66
2022/08/01 14:09:23;;;;;;;;;;;;;;;28.91;30.09;96372.66;6220453;28;19957;-66
2022/08/01 14:12:29;;;;;;;;;;;;;;;28.46;30.60;96377.56;6220475;28;19929;-65
2022/08/01 14:15:31;;;;;;;;;;;;;;;28.13;31.09;96379.50;6220324;28;19932;-66
2022/08/01 14:18:37;;;;;;;;;;;;;;;27.77;31.33;96385.63;6223598;28;19926;-65
2022/08/01 14:21:42;;;;;;;;;;;;;;;27.56;31.93;96388.69;6225201;28;19926;-65
2022/08/01 14:24:46;;;;;;;;;;;;;;;27.39;31.71;96399.19;6225137;28;19925;-64
2022/08/01 14:27:50;;;;;;;;;;;;;;;27.29;32.31;96389.69;6223708;28;20075;-66
2022/08/01 14:30:59;;;;;;;;;;;;;;;27.15;32.52;96393.47;6224762;28;19929;-66
2022/08/01 14:34:02;;;;;;;;;;;;;;;27.13;32.64;96398.25;6224277;28;19925;-67
2022/08/01 14:37:07;;;;;;;;;;;;;;;27.06;32.83;96401.00;6224417;28;19925;-66
2022/08/01 14:40:11;;;;;;;;;;;;;;;26.96;33.65;96397.91;6223031;28;19933;-64
2022/08/01 14:43:12;;;;;;;;;;;;;;;26.68;34.32;96392.81;6223779;28;19933;-66
2022/08/01 14:46:13;;;;;;;;;;;;;;;26.46;34.18;96394.09;6224322;28;19933;-67
2022/08/01 14:49:17;;;;;;;;;;;;;;;26.36;34.24;96394.56;6224251;28;20302;-65
2022/08/01 14:52:21;;;;;;;;;;;;;;;26.25;34.32;96397.88;6224320;28;19932;-66
2022/08/01 14:55:24;;;;;;;;;;;;;;;26.22;34.50;96403.69;6223928;28;19931;-66
2022/08/01 14:58:28;;;;;;;;;;;;;;;26.12;34.99;96398.72;6224044;28;19957;-66
2022/08/01 15:01:31;;;;;;;;;;;;;;;25.89;35.21;96402.66;6223436;28;20393;-66
2022/08/01 15:04:32;;;;;;;;;;;;;;;25.69;36.23;96399.94;6223507;28;20248;-65
2022/08/01 15:07:33;;;;;;;;;;;;;;;25.43;36.28;96405.28;6223873;28;19973;-66
2022/08/01 15:10:34;;;;;;;;;;;;;;;25.28;37.15;96409.00;6223354;28;19937;-65
2022/08/01 15:13:38;;;;;;;;;;;;;;;25.13;37.08;96412.84;6223121;28;19936;-66
2022/08/01 15:16:41;;;;;;;;;;;;;;;25.05;37.56;96414.69;6223406;28;20422;-65
2022/08/01 15:19:47;;;;;;;;;;;;;;;24.92;37.97;96406.56;6223454;28;19932;-66
2022/08/01 15:22:52;;;;;;;;;;;;;;;24.74;38.13;96407.09;6223160;28;20311;-66
2022/08/01 15:25:53;;;;;;;;;;;;;;;24.60;38.48;96411.59;6223443;28;19925;-66
2022/08/01 15:28:56;;;;;;;;;;;;;;;24.47;38.98;96419.56;6223024;28;20411;-66
2022/08/01 15:32:01;;;;;;;;;;;;;;;24.35;39.10;96423.81;6223061;28;20381;-66
2022/08/01 15:35:02;;;;;;;;;;;;;;;24.16;39.06;96426.16;6223058;28;20245;-65
2022/08/01 15:38:05;;;;;;;;;;;;;;;24.10;39.07;96435.00;6222947;28;20008;-66
2022/08/01 15:41:10;;;;;;;;;;;;;;;24.05;39.38;96431.25;6222970;28;20426;-66
2022/08/01 15:44:14;;;;;;;;;;;;;;;23.97;39.68;96442.94;6223270;28;19925;-65
2022/08/01 15:47:18;;;;;;;;;;;;;;;23.87;39.43;96442.47;6223078;28;20496;-65
2022/08/01 15:50:21;;;;;;;;;;;;;;;23.79;39.91;96448.81;6222896;28;19925;-65
2022/08/01 15:53:27;;;;;;;;;;;;;;;23.61;40.34;96451.06;6222972;28;19928;-65
2022/08/01 15:56:33;;;;;;;;;;;;;;;23.48;40.38;96449.09;6221580;28;19929;-66
2022/08/01 15:59:37;;;;;;;;;;;;;;;23.36;41.69;96445.25;6222605;28;20402;-66
2022/08/01 16:02:41;;;;;;;;;;;;;;;23.18;41.80;96445.66;6221451;28;19979;-66
2022/08/01 16:05:45;;;;;;;;;;;;;;;22.95;42.26;96445.75;6222765;28;20414;-66